createdAt,value
2018-12-19T00:01:09.401Z,2.40
2018-12-19T00:03:39.244Z,2.33
2018-12-19T00:06:09.153Z,2.53
2018-12-19T00:08:39.327Z,2.90
2018-12-19T00:11:09.293Z,2.43
2018-12-19T00:13:39.206Z,2.63
2018-12-19T00:16:09.121Z,3.27
2018-12-19T00:18:39.421Z,3.70
2018-12-19T00:21:09.389Z,3.03
2018-12-19T00:23:39.381Z,2.83
2018-12-19T00:26:09.319Z,2.53
2018-12-19T00:28:39.423Z,3.10
2018-12-19T00:31:09.330Z,2.43
2018-12-19T00:33:39.242Z,2.70
2018-12-19T00:36:09.157Z,2.87
2018-12-19T00:38:39.413Z,3.27
2018-12-19T00:41:09.295Z,3.10
2018-12-19T00:43:39.214Z,3.00
2018-12-19T00:46:09.020Z,2.70
2018-12-19T00:48:39.042Z,2.90
2018-12-19T00:51:08.986Z,3.07
2018-12-19T00:53:38.928Z,3.03
2018-12-19T00:56:08.897Z,2.83
2018-12-19T00:58:38.805Z,2.13
2018-12-19T01:01:08.713Z,2.90
2018-12-19T01:03:38.634Z,2.37
2018-12-19T01:06:08.617Z,2.27
2018-12-19T01:08:38.796Z,2.13
2018-12-19T01:11:08.889Z,2.40
2018-12-19T01:13:38.809Z,2.40
2018-12-19T01:16:08.616Z,2.60
2018-12-19T01:18:38.897Z,2.20
2018-12-19T01:21:08.814Z,2.87
2018-12-19T01:23:38.874Z,2.93
2018-12-19T01:26:08.740Z,2.80
2018-12-19T01:28:38.701Z,2.67
2018-12-19T01:31:08.621Z,2.30
2018-12-19T01:33:38.534Z,2.50
2018-12-19T01:36:08.474Z,2.50
2018-12-19T01:38:38.369Z,2.10
2018-12-19T01:41:08.281Z,2.60
2018-12-19T01:43:38.089Z,2.40
2018-12-19T01:46:08.004Z,3.17
2018-12-19T01:48:37.917Z,1.90
2018-12-19T01:51:07.834Z,1.87
2018-12-19T01:53:37.648Z,1.97
2018-12-19T01:56:07.564Z,2.00
2018-12-19T01:58:37.639Z,2.00
2018-12-19T02:01:07.597Z,2.10
2018-12-19T02:03:37.549Z,1.80
2018-12-19T02:06:07.425Z,1.50
2018-12-19T02:08:37.443Z,2.13
2018-12-19T02:11:07.257Z,2.30
2018-12-19T02:13:39.236Z,2.17
2018-12-19T02:16:09.137Z,2.00
2018-12-19T02:18:39.212Z,2.77
2018-12-19T02:21:09.196Z,1.80
2018-12-19T02:23:39.220Z,1.87
2018-12-19T02:26:09.272Z,2.10
2018-12-19T02:28:39.486Z,2.50
2018-12-19T02:31:09.447Z,2.03
2018-12-19T02:33:39.356Z,3.17
2018-12-19T02:36:09.307Z,2.80
2018-12-19T02:38:39.249Z,2.50
2018-12-19T02:41:09.211Z,2.30
2018-12-19T02:43:39.016Z,3.40
2018-12-19T02:46:08.938Z,3.10
2018-12-19T02:48:39.228Z,2.43
2018-12-19T02:51:09.133Z,2.53
2018-12-19T02:53:39.120Z,2.40
2018-12-19T02:56:09.009Z,2.97
2018-12-19T02:58:39.272Z,2.40
2018-12-19T03:01:09.245Z,2.57
2018-12-19T03:03:39.116Z,2.40
2018-12-19T03:06:09.105Z,2.50
2018-12-19T03:08:39.302Z,2.03
2018-12-19T03:11:09.990Z,2.47
2018-12-19T03:13:40.070Z,2.33
2018-12-19T03:16:10.066Z,1.70
2018-12-19T03:18:40.114Z,2.33
2018-12-19T03:21:10.024Z,2.87
2018-12-19T03:23:39.970Z,2.23
2018-12-19T03:26:09.929Z,2.47
2018-12-19T03:28:40.079Z,3.13
2018-12-19T03:31:10.026Z,2.60
2018-12-19T03:33:39.984Z,2.10
2018-12-19T03:36:09.896Z,2.97
2018-12-19T03:38:40.044Z,2.27
2018-12-19T03:41:10.033Z,2.13
2018-12-19T03:43:39.880Z,2.10
2018-12-19T03:46:09.865Z,3.13
2018-12-19T03:48:44.693Z,2.50
2018-12-19T03:51:14.545Z,2.47
2018-12-19T03:53:44.556Z,2.00
2018-12-19T03:56:14.461Z,2.17
2018-12-19T03:58:44.567Z,1.87
2018-12-19T04:01:14.543Z,2.43
2018-12-19T04:03:44.449Z,2.13
2018-12-19T04:06:14.437Z,2.30
2018-12-19T04:08:44.348Z,2.30
2018-12-19T04:11:14.337Z,2.70
2018-12-19T04:13:44.593Z,3.63
2018-12-19T04:16:14.481Z,2.40
2018-12-19T04:18:44.494Z,2.27
2018-12-19T04:21:14.312Z,2.23
2018-12-19T04:23:44.259Z,2.07
2018-12-19T04:26:14.237Z,2.73
2018-12-19T04:28:44.182Z,2.50
2018-12-19T04:31:14.174Z,2.10
2018-12-19T04:33:44.053Z,2.10
2018-12-19T04:36:14.106Z,1.70
2018-12-19T04:38:44.204Z,2.80
2018-12-19T04:41:14.140Z,2.97
2018-12-19T04:43:44.084Z,2.77
2018-12-19T04:46:14.027Z,1.87
2018-12-19T04:48:45.012Z,2.20
2018-12-19T04:51:14.933Z,2.73
2018-12-19T04:53:44.842Z,2.50
2018-12-19T04:56:14.753Z,2.47
2018-12-19T04:58:44.777Z,2.63
2018-12-19T05:01:15.416Z,2.43
2018-12-19T05:03:45.441Z,2.20
2018-12-19T05:06:15.337Z,2.33
2018-12-19T05:08:45.255Z,2.70
2018-12-19T05:11:15.168Z,2.20
2018-12-19T05:13:44.986Z,2.70
2018-12-19T05:16:14.893Z,2.00
2018-12-19T05:18:44.908Z,1.93
2018-12-19T05:21:14.826Z,2.60
2018-12-19T05:23:44.772Z,2.30
2018-12-19T05:26:14.657Z,2.33
2018-12-19T05:28:44.702Z,2.23
2018-12-19T05:31:14.724Z,2.20
2018-12-19T05:33:44.767Z,1.93
2018-12-19T05:36:14.759Z,2.50
2018-12-19T05:38:44.644Z,2.50
2018-12-19T05:41:14.589Z,2.27
2018-12-19T05:43:44.604Z,2.13
2018-12-19T05:46:14.548Z,3.33
2018-12-19T05:48:45.560Z,2.10
2018-12-19T05:51:15.444Z,2.17
2018-12-19T05:53:45.362Z,2.00
2018-12-19T05:56:15.231Z,2.00
2018-12-19T05:58:45.185Z,2.50
2018-12-19T06:01:15.001Z,2.47
2018-12-19T06:03:44.917Z,3.03
2018-12-19T06:06:14.877Z,2.03
2018-12-19T06:08:45.035Z,2.43
2018-12-19T06:11:15.002Z,2.10
2018-12-19T06:13:44.994Z,2.17
2018-12-19T06:16:14.905Z,2.07
2018-12-19T06:18:44.950Z,2.50
2018-12-19T06:21:14.761Z,2.37
2018-12-19T06:23:44.747Z,2.53
2018-12-19T06:26:14.567Z,2.87
2018-12-19T06:28:44.788Z,2.70
2018-12-19T06:31:14.728Z,2.50
2018-12-19T06:33:44.990Z,2.70
2018-12-19T06:36:15.201Z,2.80
2018-12-19T06:38:45.159Z,3.37
2018-12-19T06:41:14.973Z,3.47
2018-12-19T06:43:44.989Z,2.80
2018-12-19T06:46:14.804Z,2.57
2018-12-19T06:48:45.114Z,3.10
2018-12-19T06:51:15.074Z,2.77
2018-12-19T06:53:44.955Z,3.00
2018-12-19T06:56:14.872Z,3.63
2018-12-19T06:58:44.805Z,3.03
2018-12-19T07:01:14.700Z,3.20
2018-12-19T07:03:44.513Z,3.47
2018-12-19T07:06:14.429Z,3.50
2018-12-19T07:08:44.372Z,3.00
2018-12-19T07:11:14.395Z,3.20
2018-12-19T07:13:44.409Z,3.83
2018-12-19T07:16:14.297Z,3.00
2018-12-19T07:18:44.309Z,2.73
2018-12-19T07:21:14.333Z,3.33
2018-12-19T07:23:44.256Z,3.00
2018-12-19T07:26:14.158Z,2.87
2018-12-19T07:28:44.133Z,3.60
2018-12-19T07:31:14.092Z,3.23
2018-12-19T07:33:43.914Z,3.97
2018-12-19T07:36:13.853Z,3.47
2018-12-19T07:38:43.913Z,5.77
2018-12-19T07:41:13.852Z,4.47
2018-12-19T07:43:43.672Z,5.40
2018-12-19T07:46:19.665Z,3.90
2018-12-19T07:48:45.686Z,4.70
2018-12-19T07:51:15.588Z,4.40
2018-12-19T07:53:45.576Z,4.43
2018-12-19T07:56:16.072Z,4.17
2018-12-19T07:58:46.057Z,5.17
2018-12-19T08:01:17.355Z,4.20
2018-12-19T08:03:47.628Z,4.73
2018-12-19T08:06:17.712Z,3.60
2018-12-19T08:08:47.804Z,3.90
2018-12-19T08:11:17.776Z,4.37
2018-12-19T08:13:47.693Z,3.97
2018-12-19T08:16:17.600Z,3.47
2018-12-19T08:18:47.597Z,3.93
2018-12-19T08:21:17.615Z,3.30
2018-12-19T08:23:47.457Z,4.17
2018-12-19T08:26:17.499Z,3.83
2018-12-19T08:28:47.621Z,4.30
2018-12-19T08:31:17.640Z,4.90
2018-12-19T08:33:47.497Z,3.77
2018-12-19T08:36:17.418Z,3.70
2018-12-19T08:38:47.352Z,4.07
2018-12-19T08:41:17.345Z,3.40
2018-12-19T08:43:47.288Z,3.67
2018-12-19T08:46:17.177Z,3.67
2018-12-19T08:48:47.222Z,3.67
2018-12-19T08:51:17.113Z,3.50
2018-12-19T08:53:47.021Z,3.43
2018-12-19T08:56:16.837Z,3.00
2018-12-19T08:58:46.868Z,4.50
2018-12-19T09:01:16.969Z,4.00
2018-12-19T09:03:46.841Z,3.93
2018-12-19T09:06:16.829Z,3.90
2018-12-19T09:08:46.716Z,4.37
2018-12-19T09:11:16.754Z,3.63
2018-12-19T09:13:46.748Z,3.50
2018-12-19T09:16:16.666Z,4.20
2018-12-19T09:18:46.718Z,4.27
2018-12-19T09:21:16.662Z,3.50
2018-12-19T09:23:46.641Z,3.80
2018-12-19T09:26:16.644Z,3.90
2018-12-19T09:28:46.644Z,4.77
2018-12-19T09:31:16.698Z,3.70
2018-12-19T09:33:46.686Z,3.50
2018-12-19T09:36:16.497Z,4.70
2018-12-19T09:38:46.576Z,3.33
2018-12-19T09:41:16.561Z,4.50
2018-12-19T09:43:46.504Z,3.40
2018-12-19T09:46:16.494Z,3.80
2018-12-19T09:48:46.380Z,3.73
2018-12-19T09:51:16.433Z,4.57
2018-12-19T09:53:46.445Z,3.40
2018-12-19T09:56:16.366Z,4.97
2018-12-19T09:58:46.372Z,4.07
2018-12-19T10:01:16.326Z,4.50
2018-12-19T10:03:46.277Z,4.00
2018-12-19T10:06:16.225Z,4.20
2018-12-19T10:08:46.105Z,4.60
2018-12-19T10:11:18.799Z,4.70
2018-12-19T10:13:48.249Z,4.87
2018-12-19T10:16:18.136Z,3.83
2018-12-19T10:18:49.176Z,3.93
2018-12-19T10:21:19.061Z,4.20
2018-12-19T10:23:48.977Z,3.43
2018-12-19T10:26:18.922Z,4.00
2018-12-19T10:28:48.911Z,3.60
2018-12-19T10:31:18.853Z,4.10
2018-12-19T10:33:48.799Z,3.10
2018-12-19T10:36:22.811Z,3.13
2018-12-19T10:38:53.866Z,3.63
2018-12-19T10:41:25.529Z,2.60
2018-12-19T10:43:56.076Z,2.87
2018-12-19T10:46:25.993Z,3.47
2018-12-19T10:48:56.040Z,2.80
2018-12-19T10:51:25.925Z,2.70
2018-12-19T10:53:55.873Z,3.10
2018-12-19T10:56:25.753Z,2.90
2018-12-19T10:58:55.673Z,2.80
2018-12-19T11:01:25.615Z,2.90
2018-12-19T11:03:55.637Z,3.20
2018-12-19T11:06:25.654Z,3.27
2018-12-19T11:08:55.669Z,4.20
2018-12-19T11:11:32.026Z,2.97
2018-12-19T11:13:57.984Z,3.30
2018-12-19T11:16:27.941Z,2.80
2018-12-19T11:18:57.988Z,3.37
2018-12-19T11:21:27.921Z,2.53
2018-12-19T11:23:58.071Z,3.40
2018-12-19T11:26:28.084Z,3.17
2018-12-19T11:28:58.031Z,2.63
2018-12-19T11:31:27.981Z,3.27
2018-12-19T11:33:57.874Z,2.77
2018-12-19T11:36:27.805Z,3.07
2018-12-19T11:38:57.698Z,2.87
2018-12-19T11:41:27.607Z,2.73
2018-12-19T11:43:57.522Z,3.00
2018-12-19T11:46:27.442Z,2.53
2018-12-19T11:48:57.486Z,2.90
2018-12-19T11:51:27.369Z,2.43
2018-12-19T11:53:57.285Z,2.60
2018-12-19T11:56:27.234Z,3.10
2018-12-19T11:58:57.222Z,2.30
2018-12-19T12:01:27.141Z,2.20
2018-12-19T12:03:56.992Z,1.80
2018-12-19T12:06:26.960Z,2.40
2018-12-19T12:08:56.877Z,1.70
2018-12-19T12:11:26.792Z,1.90
2018-12-19T12:13:56.742Z,2.13
2018-12-19T12:16:26.986Z,2.00
2018-12-19T12:18:58.207Z,2.10
2018-12-19T12:21:28.148Z,2.37
2018-12-19T12:23:58.108Z,2.37
2018-12-19T12:26:27.950Z,2.30
2018-12-19T12:28:58.889Z,2.35
2018-12-19T12:31:28.877Z,1.90
2018-12-19T12:33:58.820Z,1.85
2018-12-19T12:36:28.734Z,1.75
2018-12-19T12:38:58.721Z,1.70
2018-12-19T12:41:29.011Z,1.90
2018-12-19T12:43:58.959Z,1.90
2018-12-19T12:46:28.906Z,1.50
2018-12-19T12:48:58.822Z,2.20
2018-12-19T12:51:28.659Z,2.22
2018-12-19T12:53:58.623Z,2.10
2018-12-19T12:56:28.537Z,1.72
2018-12-19T12:58:58.454Z,1.60
2018-12-19T13:01:28.401Z,1.70
2018-12-19T13:03:58.285Z,1.60
2018-12-19T13:06:28.197Z,1.10
2018-12-19T13:08:58.245Z,0.90
2018-12-19T13:11:28.164Z,1.23
2018-12-19T13:13:58.181Z,1.23
2018-12-19T13:16:28.086Z,1.50
2018-12-19T13:18:58.081Z,1.03
2018-12-19T13:21:28.300Z,1.20
2018-12-19T13:23:58.114Z,0.90
2018-12-19T13:26:28.034Z,1.13
2018-12-19T13:28:57.950Z,1.43
2018-12-19T13:31:27.859Z,1.30
2018-12-19T13:33:57.801Z,1.30
2018-12-19T13:36:27.722Z,1.30
2018-12-19T13:38:57.741Z,1.17
2018-12-19T13:41:27.577Z,1.80
2018-12-19T13:43:57.774Z,1.10
2018-12-19T13:46:27.659Z,1.10
2018-12-19T13:48:57.773Z,1.60
2018-12-19T13:51:27.716Z,1.70
2018-12-19T13:53:57.636Z,1.30
2018-12-19T13:56:27.625Z,0.97
2018-12-19T13:58:57.949Z,1.30
2018-12-19T14:01:27.790Z,1.37
2018-12-19T14:03:57.776Z,1.27
2018-12-19T14:06:27.694Z,1.30
2018-12-19T14:08:57.615Z,1.17
2018-12-19T14:11:27.525Z,1.10
2018-12-19T14:13:57.344Z,1.30
2018-12-19T14:16:27.250Z,1.20
2018-12-19T14:18:57.301Z,1.50
2018-12-19T14:21:27.345Z,1.50
2018-12-19T14:23:57.157Z,1.80
2018-12-19T14:26:27.071Z,1.70
2018-12-19T14:28:57.984Z,1.60
2018-12-19T14:31:27.969Z,1.70
2018-12-19T14:33:57.812Z,1.37
2018-12-19T14:36:27.798Z,1.80
2018-12-19T14:38:57.847Z,1.40
2018-12-19T14:41:27.737Z,1.60
2018-12-19T14:43:57.644Z,1.40
2018-12-19T14:46:27.461Z,1.90
2018-12-19T14:48:57.476Z,1.60
2018-12-19T14:51:27.552Z,1.63
2018-12-19T14:53:57.433Z,1.90
2018-12-19T14:56:27.429Z,1.57
2018-12-19T14:58:57.395Z,1.60
2018-12-19T15:01:27.397Z,2.20
2018-12-19T15:03:57.331Z,1.73
2018-12-19T15:06:27.190Z,1.40
2018-12-19T15:08:57.210Z,1.63
2018-12-19T15:11:27.106Z,1.30
2018-12-19T15:13:57.065Z,1.20
2018-12-19T15:16:26.982Z,1.10
2018-12-19T15:18:56.867Z,1.20
2018-12-19T15:21:26.796Z,1.47
2018-12-19T15:23:56.701Z,1.20
2018-12-19T15:26:26.506Z,1.40
2018-12-19T15:28:56.524Z,1.83
2018-12-19T15:31:26.364Z,1.30
2018-12-19T15:33:56.462Z,1.10
2018-12-19T15:36:26.545Z,1.40
2018-12-19T15:38:56.497Z,1.50
2018-12-19T15:41:26.317Z,1.50
2018-12-19T15:43:56.220Z,1.90
2018-12-19T15:46:26.165Z,1.30
2018-12-19T15:48:56.108Z,2.00
2018-12-19T15:51:26.101Z,2.30
2018-12-19T15:53:56.409Z,1.70
2018-12-19T15:56:26.263Z,1.80
2018-12-19T15:58:56.226Z,1.73
2018-12-19T16:01:26.052Z,2.80
2018-12-19T16:03:56.056Z,2.03
2018-12-19T16:06:25.872Z,1.90
2018-12-19T16:08:55.885Z,1.97
2018-12-19T16:11:25.854Z,1.77
2018-12-19T16:13:55.741Z,2.10
2018-12-19T16:16:25.729Z,2.27
2018-12-19T16:18:55.646Z,2.23
2018-12-19T16:21:25.556Z,2.30
2018-12-19T16:23:55.505Z,2.20
2018-12-19T16:26:25.692Z,2.13
2018-12-19T16:28:55.613Z,2.40
2018-12-19T16:31:25.420Z,2.07
2018-12-19T16:33:55.336Z,2.70
2018-12-19T16:36:25.153Z,2.23
2018-12-19T16:38:55.194Z,2.33
2018-12-19T16:41:25.199Z,3.17
2018-12-19T16:43:54.997Z,3.40
2018-12-19T16:46:24.912Z,3.00
2018-12-19T16:48:54.825Z,2.57
2018-12-19T16:51:24.741Z,2.80
2018-12-19T16:53:54.602Z,3.60
2018-12-19T16:56:24.570Z,3.43
2018-12-19T16:58:54.747Z,3.83
2018-12-19T17:01:24.667Z,3.17
2018-12-19T17:03:54.628Z,2.33
2018-12-19T17:06:24.438Z,2.00
2018-12-19T17:08:54.462Z,1.90
2018-12-19T17:11:24.277Z,2.00
2018-12-19T17:13:54.181Z,2.47
2018-12-19T17:16:24.041Z,2.07
2018-12-19T17:18:54.012Z,1.97
2018-12-19T17:21:23.828Z,2.00
2018-12-19T17:23:54.158Z,2.20
2018-12-19T17:26:23.962Z,1.70
2018-12-19T17:28:53.980Z,2.17
2018-12-19T17:31:23.925Z,2.03
2018-12-19T17:33:53.868Z,2.10
2018-12-19T17:36:23.832Z,2.30
2018-12-19T17:38:53.747Z,2.37
2018-12-19T17:41:23.658Z,2.70
2018-12-19T17:43:53.471Z,3.70
2018-12-19T17:46:23.385Z,4.83
2018-12-19T17:48:53.297Z,4.60
2018-12-19T17:51:23.213Z,4.40
2018-12-19T17:53:53.029Z,4.80
2018-12-19T17:56:22.945Z,4.13
2018-12-19T17:58:52.989Z,4.40
2018-12-19T18:01:23.262Z,4.10
2018-12-19T18:03:53.196Z,4.30
2018-12-19T18:06:23.013Z,5.50
2018-12-19T18:08:53.029Z,4.37
2018-12-19T18:11:22.977Z,4.27
2018-12-19T18:13:53.036Z,5.40
2018-12-19T18:16:22.978Z,3.83
2018-12-19T18:18:52.892Z,4.73
2018-12-19T18:21:22.814Z,4.37
2018-12-19T18:23:52.621Z,4.53
2018-12-19T18:26:22.549Z,4.37
2018-12-19T18:28:52.462Z,4.13
2018-12-19T18:31:22.370Z,4.63
2018-12-19T18:33:52.314Z,3.27
2018-12-19T18:36:22.255Z,3.13
2018-12-19T18:38:53.142Z,4.17
2018-12-19T18:41:23.056Z,4.47
2018-12-19T18:43:52.924Z,4.27
2018-12-19T18:46:22.731Z,4.47
2018-12-19T18:48:52.753Z,3.50
2018-12-19T18:51:22.646Z,4.20
2018-12-19T18:53:52.654Z,4.33
2018-12-19T18:56:22.545Z,4.30
2018-12-19T18:58:52.584Z,4.07
2018-12-19T19:01:22.616Z,4.73
2018-12-19T19:03:52.779Z,4.40
2018-12-19T19:06:22.726Z,4.63
2018-12-19T19:08:52.799Z,5.03
2018-12-19T19:11:22.819Z,4.50
2018-12-19T19:13:52.901Z,4.73
2018-12-19T19:16:22.790Z,3.93
2018-12-19T19:18:52.832Z,3.50
2018-12-19T19:21:22.761Z,4.70
2018-12-19T19:23:52.833Z,4.40
2018-12-19T19:26:22.982Z,3.13
2018-12-19T19:28:52.875Z,3.00
2018-12-19T19:31:22.784Z,3.13
2018-12-19T19:33:52.628Z,3.60
2018-12-19T19:36:22.622Z,3.47
2018-12-19T19:38:52.912Z,3.73
2018-12-19T19:41:22.909Z,3.27
2018-12-19T19:43:53.699Z,4.00
2018-12-19T19:46:23.846Z,2.90
2018-12-19T19:48:53.743Z,2.70
2018-12-19T19:51:24.007Z,3.23
2018-12-19T19:53:54.054Z,3.07
2018-12-19T19:56:24.152Z,3.23
2018-12-19T19:58:54.231Z,3.10
2018-12-19T20:01:24.228Z,3.63
2018-12-19T20:03:54.096Z,2.73
2018-12-19T20:06:24.009Z,3.07
2018-12-19T20:08:54.992Z,3.00
2018-12-19T20:11:25.909Z,2.57
2018-12-19T20:13:56.060Z,2.33
2018-12-19T20:16:25.876Z,3.00
2018-12-19T20:18:55.941Z,3.40
2018-12-19T20:21:26.060Z,2.70
2018-12-19T20:23:55.917Z,3.00
2018-12-19T20:26:25.832Z,2.57
2018-12-19T20:28:55.758Z,3.10
2018-12-19T20:31:25.661Z,3.30
2018-12-19T20:33:55.619Z,2.67
2018-12-19T20:36:25.688Z,2.70
2018-12-19T20:38:55.617Z,3.07
2018-12-19T20:41:25.604Z,2.30
2018-12-19T20:43:55.618Z,2.10
2018-12-19T20:46:25.516Z,2.40
2018-12-19T20:48:56.841Z,2.20
2018-12-19T20:51:27.321Z,2.40
2018-12-19T20:53:57.617Z,2.27
2018-12-19T20:56:27.685Z,2.40
2018-12-19T20:58:57.728Z,1.87
2018-12-19T21:01:27.770Z,1.70
2018-12-19T21:03:57.728Z,1.80
2018-12-19T21:06:27.860Z,2.00
2018-12-19T21:08:57.925Z,2.40
2018-12-19T21:11:27.885Z,2.07
2018-12-19T21:13:57.831Z,1.40
2018-12-19T21:17:30.647Z,1.40
2018-12-19T21:20:00.640Z,1.53
2018-12-19T21:22:30.579Z,1.73
2018-12-19T21:25:00.571Z,1.53
2018-12-19T21:27:30.552Z,1.37
2018-12-19T21:30:00.470Z,1.47
2018-12-19T21:32:30.416Z,1.60
2018-12-19T21:35:00.362Z,1.67
2018-12-19T21:37:30.534Z,1.90
2018-12-19T21:40:00.608Z,1.90
2018-12-19T21:42:30.480Z,1.90
2018-12-19T21:45:00.516Z,2.53
2018-12-19T21:47:30.420Z,2.57
2018-12-19T21:50:00.405Z,2.83
2018-12-19T21:52:30.349Z,3.07
2018-12-19T21:55:00.245Z,3.83
2018-12-19T21:57:30.253Z,3.27
2018-12-19T22:00:00.168Z,3.10
2018-12-19T22:02:30.115Z,4.30
2018-12-19T22:05:00.009Z,3.23
2018-12-19T22:07:30.016Z,2.80
2018-12-19T22:09:59.876Z,3.07
2018-12-19T22:12:29.849Z,3.73
2018-12-19T22:14:59.724Z,3.60
2018-12-19T22:17:34.813Z,3.37
2018-12-19T22:20:04.807Z,4.00
2018-12-19T22:22:34.729Z,3.87
2018-12-19T22:25:05.152Z,5.30
2018-12-19T22:27:35.206Z,3.70
2018-12-19T22:30:06.400Z,4.23
2018-12-19T22:32:36.400Z,3.37
2018-12-19T22:35:06.489Z,3.47
2018-12-19T22:37:36.475Z,3.20
2018-12-19T22:40:07.515Z,3.33
2018-12-19T22:42:37.462Z,3.10
2018-12-19T22:45:07.562Z,3.07
2018-12-19T22:47:37.574Z,2.30
2018-12-19T22:50:07.729Z,2.60
2018-12-19T22:52:37.789Z,2.83
2018-12-19T22:55:07.926Z,2.43
2018-12-19T22:57:37.959Z,2.70
2018-12-19T23:00:12.830Z,3.27
2018-12-19T23:02:47.676Z,2.87
2018-12-19T23:05:21.958Z,3.17
2018-12-19T23:07:52.070Z,2.97
2018-12-19T23:10:22.320Z,2.87
2018-12-19T23:12:53.319Z,2.80
2018-12-19T23:15:25.104Z,2.50
2018-12-19T23:17:59.341Z,2.50
2018-12-19T23:20:29.252Z,2.60
2018-12-19T23:22:59.290Z,2.27
2018-12-19T23:25:29.225Z,2.57
2018-12-19T23:27:59.158Z,3.07
2018-12-19T23:30:29.273Z,2.40
2018-12-19T23:32:59.203Z,2.37
2018-12-19T23:35:29.212Z,2.20
2018-12-19T23:37:59.347Z,1.73
2018-12-19T23:40:29.598Z,1.80
2018-12-19T23:42:59.566Z,1.57
2018-12-19T23:45:29.470Z,1.60
2018-12-19T23:47:59.591Z,1.40
2018-12-19T23:50:29.623Z,1.77
2018-12-19T23:52:59.430Z,1.80
2018-12-19T23:55:29.413Z,1.17
2018-12-19T23:57:59.508Z,1.60
